sensor_id;sensor_type;location;lat;lon;timestamp;pressure;altitude;pressure_sealevel;temperature;humidity
35892;BME280;21993;42.672;23.296;2023-07-24T00:00:08;94943.84;;;25.73;52.96
35892;BME280;21993;42.672;23.296;2023-07-24T00:02:34;94944.03;;;25.71;52.83
35892;BME280;21993;42.672;23.296;2023-07-24T00:04:59;94941.75;;;25.68;52.59
35892;BME280;21993;42.672;23.296;2023-07-24T00:07:25;94949.25;;;25.66;53.22
35892;BME280;21993;42.672;23.296;2023-07-24T00:09:50;94945.09;;;25.64;52.83
35892;BME280;21993;42.672;23.296;2023-07-24T00:12:15;94931.06;;;25.62;52.68
35892;BME280;21993;42.672;23.296;2023-07-24T00:14:41;94928.38;;;25.62;53.48
35892;BME280;21993;42.672;23.296;2023-07-24T00:17:06;94934.66;;;25.55;53.43
35892;BME280;21993;42.672;23.296;2023-07-24T00:19:32;94934.06;;;25.53;53.47
35892;BME280;21993;42.672;23.296;2023-07-24T00:21:57;94938.25;;;25.49;53.50
35892;BME280;21993;42.672;23.296;2023-07-24T00:24:22;94944.66;;;25.48;53.00
35892;BME280;21993;42.672;23.296;2023-07-24T00:26:48;94935.78;;;25.48;53.61
35892;BME280;21993;42.672;23.296;2023-07-24T00:29:13;94931.06;;;25.43;52.92
35892;BME280;21993;42.672;23.296;2023-07-24T00:31:39;94929.19;;;25.44;53.21
35892;BME280;21993;42.672;23.296;2023-07-24T00:34:04;94942.28;;;25.40;52.78
35892;BME280;21993;42.672;23.296;2023-07-24T00:36:29;94937.09;;;25.39;52.75
35892;BME280;21993;42.672;23.296;2023-07-24T00:38:55;94937.94;;;25.39;52.99
35892;BME280;21993;42.672;23.296;2023-07-24T00:41:20;94933.22;;;25.35;53.46
35892;BME280;21993;42.672;23.296;2023-07-24T00:43:45;94930.75;;;25.33;53.38
35892;BME280;21993;42.672;23.296;2023-07-24T00:46:11;94928.50;;;25.30;53.61
35892;BME280;21993;42.672;23.296;2023-07-24T00:48:37;94943.59;;;25.31;53.91
35892;BME280;21993;42.672;23.296;2023-07-24T00:51:04;94934.53;;;25.25;54.53
35892;BME280;21993;42.672;23.296;2023-07-24T00:53:30;94941.19;;;25.23;54.06
35892;BME280;21993;42.672;23.296;2023-07-24T00:55:56;94937.50;;;25.17;54.50
35892;BME280;21993;42.672;23.296;2023-07-24T00:58:22;94935.88;;;25.16;55.01
35892;BME280;21993;42.672;23.296;2023-07-24T01:00:47;94930.72;;;25.15;54.61
35892;BME280;21993;42.672;23.296;2023-07-24T01:03:13;94921.00;;;25.14;55.29
35892;BME280;21993;42.672;23.296;2023-07-24T01:05:39;94919.22;;;25.08;56.08
35892;BME280;21993;42.672;23.296;2023-07-24T01:08:06;94925.63;;;25.07;55.59
35892;BME280;21993;42.672;23.296;2023-07-24T01:10:32;94921.28;;;25.06;55.34
35892;BME280;21993;42.672;23.296;2023-07-24T01:13:19;94932.66;;;25.01;55.50
35892;BME280;21993;42.672;23.296;2023-07-24T01:15:57;94930.63;;;24.96;56.01
35892;BME280;21993;42.672;23.296;2023-07-24T01:18:28;94925.69;;;24.93;56.16
35892;BME280;21993;42.672;23.296;2023-07-24T01:20:56;94913.75;;;24.89;56.33
35892;BME280;21993;42.672;23.296;2023-07-24T01:26:06;94913.25;;;24.74;56.04
35892;BME280;21993;42.672;23.296;2023-07-24T01:28:32;94910.34;;;24.76;56.25
35892;BME280;21993;42.672;23.296;2023-07-24T01:30:57;94904.59;;;24.72;56.12
35892;BME280;21993;42.672;23.296;2023-07-24T01:33:23;94905.84;;;24.69;56.06
35892;BME280;21993;42.672;23.296;2023-07-24T01:35:53;94910.28;;;24.57;56.56
35892;BME280;21993;42.672;23.296;2023-07-24T01:38:19;94909.44;;;24.57;55.95
35892;BME280;21993;42.672;23.296;2023-07-24T01:40:45;94920.19;;;24.57;54.96
35892;BME280;21993;42.672;23.296;2023-07-24T01:43:10;94925.97;;;24.54;54.61
35892;BME280;21993;42.672;23.296;2023-07-24T01:45:36;94935.47;;;24.56;54.95
35892;BME280;21993;42.672;23.296;2023-07-24T01:48:03;94933.59;;;24.57;54.45
35892;BME280;21993;42.672;23.296;2023-07-24T01:50:29;94932.38;;;24.53;55.13
35892;BME280;21993;42.672;23.296;2023-07-24T01:52:54;94932.81;;;24.50;55.46
35892;BME280;21993;42.672;23.296;2023-07-24T01:55:19;94942.16;;;24.40;55.40
35892;BME280;21993;42.672;23.296;2023-07-24T01:57:45;94929.56;;;24.41;55.27
35892;BME280;21993;42.672;23.296;2023-07-24T02:00:11;94935.56;;;24.30;54.90
35892;BME280;21993;42.672;23.296;2023-07-24T02:02:36;94936.03;;;24.20;55.17
35892;BME280;21993;42.672;23.296;2023-07-24T02:05:01;94940.38;;;24.21;55.21
35892;BME280;21993;42.672;23.296;2023-07-24T02:07:27;94932.50;;;24.26;55.44
35892;BME280;21993;42.672;23.296;2023-07-24T02:09:52;94931.47;;;24.27;55.44
35892;BME280;21993;42.672;23.296;2023-07-24T02:12:18;94927.16;;;24.26;55.98
35892;BME280;21993;42.672;23.296;2023-07-24T02:14:43;94922.38;;;24.28;56.02
35892;BME280;21993;42.672;23.296;2023-07-24T02:17:08;94929.19;;;24.31;55.94
35892;BME280;21993;42.672;23.296;2023-07-24T02:19:34;94933.94;;;24.29;56.24
35892;BME280;21993;42.672;23.296;2023-07-24T02:21:59;94924.47;;;24.26;56.29
35892;BME280;21993;42.672;23.296;2023-07-24T02:24:24;94918.72;;;24.23;55.95
35892;BME280;21993;42.672;23.296;2023-07-24T02:26:50;94919.09;;;24.26;55.91
35892;BME280;21993;42.672;23.296;2023-07-24T02:29:15;94923.41;;;24.27;55.73
35892;BME280;21993;42.672;23.296;2023-07-24T02:31:41;94925.31;;;24.20;55.82
35892;BME280;21993;42.672;23.296;2023-07-24T02:34:06;94913.38;;;24.16;56.42
35892;BME280;21993;42.672;23.296;2023-07-24T02:36:31;94906.75;;;24.19;56.31
35892;BME280;21993;42.672;23.296;2023-07-24T02:38:57;94920.84;;;24.07;55.95
35892;BME280;21993;42.672;23.296;2023-07-24T02:41:22;94919.38;;;24.11;55.88
35892;BME280;21993;42.672;23.296;2023-07-24T02:43:48;94921.44;;;24.09;56.42
35892;BME280;21993;42.672;23.296;2023-07-24T02:46:13;94916.91;;;24.10;56.53
35892;BME280;21993;42.672;23.296;2023-07-24T02:48:38;94920.03;;;24.07;56.67
35892;BME280;21993;42.672;23.296;2023-07-24T02:51:04;94921.47;;;24.03;56.23
35892;BME280;21993;42.672;23.296;2023-07-24T02:53:29;94924.38;;;24.01;56.42
35892;BME280;21993;42.672;23.296;2023-07-24T02:55:55;94925.63;;;23.99;56.83
35892;BME280;21993;42.672;23.296;2023-07-24T02:58:21;94920.06;;;24.00;56.52
35892;BME280;21993;42.672;23.296;2023-07-24T03:00:46;94923.34;;;23.96;56.60
35892;BME280;21993;42.672;23.296;2023-07-24T03:03:12;94917.00;;;23.90;56.88
35892;BME280;21993;42.672;23.296;2023-07-24T03:05:37;94916.59;;;23.86;56.62
35892;BME280;21993;42.672;23.296;2023-07-24T03:08:03;94905.88;;;23.86;57.18
35892;BME280;21993;42.672;23.296;2023-07-24T03:10:28;94905.69;;;23.88;57.05
35892;BME280;21993;42.672;23.296;2023-07-24T03:12:53;94917.84;;;23.91;56.82
35892;BME280;21993;42.672;23.296;2023-07-24T03:15:19;94917.41;;;23.87;56.60
35892;BME280;21993;42.672;23.296;2023-07-24T03:17:44;94912.06;;;23.87;56.53
35892;BME280;21993;42.672;23.296;2023-07-24T03:20:17;94909.59;;;23.85;57.08
35892;BME280;21993;42.672;23.296;2023-07-24T03:22:44;94909.59;;;23.85;56.96
35892;BME280;21993;42.672;23.296;2023-07-24T03:25:10;94908.97;;;23.83;56.91
35892;BME280;21993;42.672;23.296;2023-07-24T03:27:35;94915.38;;;23.82;57.27
35892;BME280;21993;42.672;23.296;2023-07-24T03:30:00;94925.69;;;23.79;57.51
35892;BME280;21993;42.672;23.296;2023-07-24T03:32:26;94924.28;;;23.76;56.46
35892;BME280;21993;42.672;23.296;2023-07-24T03:34:52;94911.91;;;23.75;55.61
35892;BME280;21993;42.672;23.296;2023-07-24T03:37:17;94917.25;;;23.75;56.13
35892;BME280;21993;42.672;23.296;2023-07-24T03:39:42;94921.59;;;23.76;56.17
35892;BME280;21993;42.672;23.296;2023-07-24T03:42:10;94912.13;;;23.74;55.94
35892;BME280;21993;42.672;23.296;2023-07-24T03:44:41;94916.88;;;23.72;56.34
35892;BME280;21993;42.672;23.296;2023-07-24T03:47:07;94913.56;;;23.70;55.87
35892;BME280;21993;42.672;23.296;2023-07-24T03:49:33;94911.91;;;23.69;55.31
35892;BME280;21993;42.672;23.296;2023-07-24T03:51:58;94921.81;;;23.68;55.41
35892;BME280;21993;42.672;23.296;2023-07-24T03:54:24;94921.81;;;23.68;55.78
35892;BME280;21993;42.672;23.296;2023-07-24T03:56:49;94925.75;;;23.66;55.89
35892;BME280;21993;42.672;23.296;2023-07-24T03:59:15;94925.97;;;23.64;56.64
35892;BME280;21993;42.672;23.296;2023-07-24T04:01:40;94922.47;;;23.64;57.22
35892;BME280;21993;42.672;23.296;2023-07-24T04:04:05;94918.97;;;23.63;57.38
35892;BME280;21993;42.672;23.296;2023-07-24T04:06:31;94927.00;;;23.63;57.26
35892;BME280;21993;42.672;23.296;2023-07-24T04:08:56;94934.59;;;23.53;57.98
35892;BME280;21993;42.672;23.296;2023-07-24T04:11:22;94934.59;;;23.53;57.98
35892;BME280;21993;42.672;23.296;2023-07-24T04:13:47;94943.69;;;23.52;58.15
35892;BME280;21993;42.672;23.296;2023-07-24T04:16:12;94940.19;;;23.58;58.05
35892;BME280;21993;42.672;23.296;2023-07-24T04:18:38;94941.41;;;23.62;57.32
35892;BME280;21993;42.672;23.296;2023-07-24T04:21:03;94938.53;;;23.57;57.71
35892;BME280;21993;42.672;23.296;2023-07-24T04:23:28;94940.59;;;23.62;57.69
35892;BME280;21993;42.672;23.296;2023-07-24T04:25:54;94941.22;;;23.64;57.34
35892;BME280;21993;42.672;23.296;2023-07-24T04:28:19;94939.38;;;23.64;57.30
35892;BME280;21993;42.672;23.296;2023-07-24T04:30:45;94941.41;;;23.62;57.21
35892;BME280;21993;42.672;23.296;2023-07-24T04:33:10;94939.56;;;23.56;57.75
35892;BME280;21993;42.672;23.296;2023-07-24T04:35:35;94935.25;;;23.62;57.46
35892;BME280;21993;42.672;23.296;2023-07-24T04:38:01;94940.78;;;23.53;57.40
35892;BME280;21993;42.672;23.296;2023-07-24T04:40:26;94932.38;;;23.50;57.51
35892;BME280;21993;42.672;23.296;2023-07-24T04:42:52;94926.41;;;23.48;57.67
35892;BME280;21993;42.672;23.296;2023-07-24T04:45:17;94936.69;;;23.51;57.66
35892;BME280;21993;42.672;23.296;2023-07-24T04:47:42;94940.19;;;23.58;56.65
35892;BME280;21993;42.672;23.296;2023-07-24T04:50:08;94945.78;;;23.63;55.34
35892;BME280;21993;42.672;23.296;2023-07-24T04:52:34;94950.91;;;23.65;55.93
35892;BME280;21993;42.672;23.296;2023-07-24T04:54:59;94949.66;;;23.54;56.41
35892;BME280;21993;42.672;23.296;2023-07-24T04:57:25;94942.50;;;23.35;56.91
35892;BME280;21993;42.672;23.296;2023-07-24T04:59:50;94949.47;;;23.49;57.03
35892;BME280;21993;42.672;23.296;2023-07-24T05:02:15;94956.69;;;23.62;57.07
35892;BME280;21993;42.672;23.296;2023-07-24T05:04:41;94952.97;;;23.63;56.88
35892;BME280;21993;42.672;23.296;2023-07-24T05:07:06;94950.09;;;23.64;55.73
35892;BME280;21993;42.672;23.296;2023-07-24T05:09:32;94945.53;;;23.71;54.26
35892;BME280;21993;42.672;23.296;2023-07-24T05:11:57;94955.59;;;23.82;53.88
35892;BME280;21993;42.672;23.296;2023-07-24T05:14:23;94948.19;;;23.78;53.93
35892;BME280;21993;42.672;23.296;2023-07-24T05:16:48;94944.28;;;23.74;54.60
35892;BME280;21993;42.672;23.296;2023-07-24T05:19:13;94937.88;;;23.75;54.43
35892;BME280;21993;42.672;23.296;2023-07-24T05:21:39;94948.84;;;23.73;53.93
35892;BME280;21993;42.672;23.296;2023-07-24T05:24:04;94946.91;;;23.87;52.66
35892;BME280;21993;42.672;23.296;2023-07-24T05:26:29;94944.88;;;23.89;52.63
35892;BME280;21993;42.672;23.296;2023-07-24T05:28:55;94941.13;;;23.97;52.35
35892;BME280;21993;42.672;23.296;2023-07-24T05:31:20;94948.94;;;24.05;51.91
35892;BME280;21993;42.672;23.296;2023-07-24T05:33:46;94946.63;;;24.08;53.01
35892;BME280;21993;42.672;23.296;2023-07-24T05:36:11;94944.63;;;23.97;53.16
35892;BME280;21993;42.672;23.296;2023-07-24T05:38:37;94947.94;;;23.93;53.39
35892;BME280;21993;42.672;23.296;2023-07-24T05:41:02;94935.81;;;23.83;54.31
35892;BME280;21993;42.672;23.296;2023-07-24T05:43:29;94935.81;;;23.83;55.05
35892;BME280;21993;42.672;23.296;2023-07-24T05:45:56;94937.59;;;23.96;55.11
35892;BME280;21993;42.672;23.296;2023-07-24T05:48:22;94929.13;;;24.06;54.74
35892;BME280;21993;42.672;23.296;2023-07-24T05:50:48;94927.88;;;24.02;55.25
35892;BME280;21993;42.672;23.296;2023-07-24T05:53:14;94933.47;;;23.94;55.24
35892;BME280;21993;42.672;23.296;2023-07-24T05:55:40;94928.53;;;23.97;55.09
35892;BME280;21993;42.672;23.296;2023-07-24T05:58:05;94926.84;;;24.03;54.87
35892;BME280;21993;42.672;23.296;2023-07-24T06:00:31;94919.09;;;24.26;52.64
35892;BME280;21993;42.672;23.296;2023-07-24T06:02:57;94918.44;;;24.37;52.31
35892;BME280;21993;42.672;23.296;2023-07-24T06:05:22;94921.50;;;24.48;52.25
35892;BME280;21993;42.672;23.296;2023-07-24T06:07:47;94916.25;;;24.59;52.73
35892;BME280;21993;42.672;23.296;2023-07-24T06:10:13;94912.22;;;24.43;53.71
35892;BME280;21993;42.672;23.296;2023-07-24T06:12:39;94919.28;;;24.31;54.72
35892;BME280;21993;42.672;23.296;2023-07-24T06:15:05;94913.91;;;24.31;54.65
35892;BME280;21993;42.672;23.296;2023-07-24T06:17:31;94910.06;;;24.59;53.26
35892;BME280;21993;42.672;23.296;2023-07-24T06:19:56;94907.28;;;24.72;52.80
35892;BME280;21993;42.672;23.296;2023-07-24T06:22:22;94909.97;;;24.72;51.92
35892;BME280;21993;42.672;23.296;2023-07-24T06:24:48;94911.16;;;24.76;51.80
35892;BME280;21993;42.672;23.296;2023-07-24T06:27:13;94915.97;;;24.67;52.32
35892;BME280;21993;42.672;23.296;2023-07-24T06:29:38;94911.13;;;24.83;52.08
35892;BME280;21993;42.672;23.296;2023-07-24T06:32:04;94916.13;;;25.04;50.98
35892;BME280;21993;42.672;23.296;2023-07-24T06:34:30;94912.81;;;25.02;51.09
35892;BME280;21993;42.672;23.296;2023-07-24T06:36:55;94910.88;;;25.16;50.72
35892;BME280;21993;42.672;23.296;2023-07-24T06:39:21;94918.19;;;25.02;51.89
35892;BME280;21993;42.672;23.296;2023-07-24T06:41:46;94913.56;;;25.16;51.79
35892;BME280;21993;42.672;23.296;2023-07-24T06:44:12;94910.31;;;25.32;51.47
35892;BME280;21993;42.672;23.296;2023-07-24T06:46:37;94915.72;;;25.25;52.71
35892;BME280;21993;42.672;23.296;2023-07-24T06:49:03;94908.84;;;25.30;52.54
35892;BME280;21993;42.672;23.296;2023-07-24T06:51:28;94899.47;;;25.39;51.87
35892;BME280;21993;42.672;23.296;2023-07-24T06:53:54;94901.56;;;25.37;52.14
35892;BME280;21993;42.672;23.296;2023-07-24T06:56:19;94907.53;;;25.39;52.19
35892;BME280;21993;42.672;23.296;2023-07-24T06:58:45;94908.50;;;25.44;52.25
35892;BME280;21993;42.672;23.296;2023-07-24T07:01:10;94904.78;;;25.45;52.22
35892;BME280;21993;42.672;23.296;2023-07-24T07:03:35;94912.47;;;25.60;52.80
35892;BME280;21993;42.672;23.296;2023-07-24T07:06:01;94912.03;;;25.63;51.97
35892;BME280;21993;42.672;23.296;2023-07-24T07:08:28;94909.13;;;25.65;52.62
35892;BME280;21993;42.672;23.296;2023-07-24T07:10:56;94920.34;;;25.98;51.75
35892;BME280;21993;42.672;23.296;2023-07-24T07:13:21;94904.63;;;26.14;50.78
35892;BME280;21993;42.672;23.296;2023-07-24T07:15:46;94917.25;;;26.13;50.98
35892;BME280;21993;42.672;23.296;2023-07-24T07:18:12;94912.78;;;26.07;51.56
35892;BME280;21993;42.672;23.296;2023-07-24T07:20:37;94895.84;;;26.06;52.03
35892;BME280;21993;42.672;23.296;2023-07-24T07:23:02;94898.06;;;26.09;52.20
35892;BME280;21993;42.672;23.296;2023-07-24T07:25:28;94889.59;;;26.06;52.38
35892;BME280;21993;42.672;23.296;2023-07-24T07:27:53;94898.34;;;26.20;52.45
35892;BME280;21993;42.672;23.296;2023-07-24T07:30:19;94897.53;;;26.31;52.27
35892;BME280;21993;42.672;23.296;2023-07-24T07:32:44;94898.69;;;26.42;51.30
35892;BME280;21993;42.672;23.296;2023-07-24T07:35:09;94896.59;;;26.55;51.45
35892;BME280;21993;42.672;23.296;2023-07-24T07:37:35;94893.81;;;26.62;50.49
35892;BME280;21993;42.672;23.296;2023-07-24T07:40:00;94890.53;;;26.60;50.59
35892;BME280;21993;42.672;23.296;2023-07-24T07:42:26;94893.34;;;26.65;51.13
35892;BME280;21993;42.672;23.296;2023-07-24T07:44:51;94889.88;;;26.76;50.92
35892;BME280;21993;42.672;23.296;2023-07-24T07:47:16;94891.75;;;26.76;50.44
35892;BME280;21993;42.672;23.296;2023-07-24T07:49:42;94894.50;;;26.99;49.80
35892;BME280;21993;42.672;23.296;2023-07-24T07:52:07;94892.47;;;26.94;49.81
35892;BME280;21993;42.672;23.296;2023-07-24T07:54:32;94882.41;;;27.02;49.47
35892;BME280;21993;42.672;23.296;2023-07-24T07:56:58;94880.91;;;27.06;48.95
35892;BME280;21993;42.672;23.296;2023-07-24T07:59:23;94894.28;;;27.36;47.86
35892;BME280;21993;42.672;23.296;2023-07-24T08:01:49;94890.06;;;27.28;48.49
35892;BME280;21993;42.672;23.296;2023-07-24T08:04:14;94887.59;;;27.38;48.28
35892;BME280;21993;42.672;23.296;2023-07-24T08:06:39;94892.28;;;27.31;48.69
35892;BME280;21993;42.672;23.296;2023-07-24T08:09:05;94892.66;;;27.35;48.47
35892;BME280;21993;42.672;23.296;2023-07-24T08:11:30;94889.81;;;27.30;49.04
35892;BME280;21993;42.672;23.296;2023-07-24T08:13:55;94876.44;;;27.46;47.69
35892;BME280;21993;42.672;23.296;2023-07-24T08:16:21;94872.94;;;27.46;48.32
35892;BME280;21993;42.672;23.296;2023-07-24T08:18:47;94879.34;;;27.57;47.09
35892;BME280;21993;42.672;23.296;2023-07-24T08:21:14;94880.91;;;27.53;48.17
35892;BME280;21993;42.672;23.296;2023-07-24T08:23:40;94873.16;;;27.56;47.59
35892;BME280;21993;42.672;23.296;2023-07-24T08:26:05;94871.28;;;27.68;47.52
35892;BME280;21993;42.672;23.296;2023-07-24T08:28:31;94867.63;;;27.74;47.26
35892;BME280;21993;42.672;23.296;2023-07-24T08:30:58;94862.31;;;27.91;46.84
35892;BME280;21993;42.672;23.296;2023-07-24T08:33:23;94861.50;;;28.19;44.66
35892;BME280;21993;42.672;23.296;2023-07-24T08:36:01;94859.81;;;28.01;45.79
35892;BME280;21993;42.672;23.296;2023-07-24T08:38:27;94851.97;;;28.00;45.73
35892;BME280;21993;42.672;23.296;2023-07-24T08:41:01;94853.25;;;27.97;46.55
35892;BME280;21993;42.672;23.296;2023-07-24T08:43:27;94852.72;;;28.12;45.94
35892;BME280;21993;42.672;23.296;2023-07-24T08:45:54;94852.03;;;28.17;45.94
35892;BME280;21993;42.672;23.296;2023-07-24T08:48:20;94849.50;;;28.27;45.49
35892;BME280;21993;42.672;23.296;2023-07-24T08:50:47;94851.03;;;28.23;45.63
35892;BME280;21993;42.672;23.296;2023-07-24T08:53:14;94848.09;;;28.24;46.01
35892;BME280;21993;42.672;23.296;2023-07-24T08:55:40;94853.34;;;28.43;44.85
35892;BME280;21993;42.672;23.296;2023-07-24T08:58:06;94848.16;;;28.41;44.94
35892;BME280;21993;42.672;23.296;2023-07-24T09:00:32;94853.25;;;28.54;45.03
35892;BME280;21993;42.672;23.296;2023-07-24T09:02:57;94853.28;;;28.71;43.10
35892;BME280;21993;42.672;23.296;2023-07-24T09:05:23;94832.06;;;28.63;43.77
35892;BME280;21993;42.672;23.296;2023-07-24T09:07:48;94845.41;;;28.70;43.72
35892;BME280;21993;42.672;23.296;2023-07-24T09:10:14;94835.84;;;28.79;44.38
35892;BME280;21993;42.672;23.296;2023-07-24T09:12:41;94831.84;;;28.98;44.36
35892;BME280;21993;42.672;23.296;2023-07-24T09:15:07;94827.50;;;29.14;43.25
35892;BME280;21993;42.672;23.296;2023-07-24T09:17:32;94834.28;;;29.16;43.06
35892;BME280;21993;42.672;23.296;2023-07-24T09:19:58;94824.09;;;29.24;43.72
35892;BME280;21993;42.672;23.296;2023-07-24T09:22:23;94827.47;;;29.31;43.70
35892;BME280;21993;42.672;23.296;2023-07-24T09:24:56;94815.22;;;29.45;43.18
35892;BME280;21993;42.672;23.296;2023-07-24T09:27:25;94819.19;;;29.59;41.44
35892;BME280;21993;42.672;23.296;2023-07-24T09:29:51;94812.22;;;29.63;41.48
35892;BME280;21993;42.672;23.296;2023-07-24T09:34:45;94813.28;;;29.84;41.33
35892;BME280;21993;42.672;23.296;2023-07-24T09:37:11;94805.28;;;29.94;41.00
35892;BME280;21993;42.672;23.296;2023-07-24T09:39:47;94803.19;;;30.02;39.71
35892;BME280;21993;42.672;23.296;2023-07-24T09:42:12;94791.38;;;30.08;40.63
35892;BME280;21993;42.672;23.296;2023-07-24T09:44:38;94784.44;;;29.95;41.64
35892;BME280;21993;42.672;23.296;2023-07-24T09:47:04;94782.03;;;29.98;40.51
35892;BME280;21993;42.672;23.296;2023-07-24T09:49:30;94766.34;;;30.22;39.88
35892;BME280;21993;42.672;23.296;2023-07-24T09:51:58;94760.63;;;30.19;40.47
35892;BME280;21993;42.672;23.296;2023-07-24T09:54:31;94767.03;;;30.40;40.42
35892;BME280;21993;42.672;23.296;2023-07-24T09:56:58;94774.97;;;30.46;40.68
35892;BME280;21993;42.672;23.296;2023-07-24T09:59:26;94768.59;;;30.63;39.41
35892;BME280;21993;42.672;23.296;2023-07-24T10:01:52;94764.91;;;30.74;38.70
35892;BME280;21993;42.672;23.296;2023-07-24T10:04:18;94765.16;;;30.72;39.11
35892;BME280;21993;42.672;23.296;2023-07-24T10:06:44;94764.34;;;30.72;37.76
35892;BME280;21993;42.672;23.296;2023-07-24T10:09:11;94759.19;;;30.70;38.79
35892;BME280;21993;42.672;23.296;2023-07-24T10:11:37;94755.53;;;30.92;38.81
35892;BME280;21993;42.672;23.296;2023-07-24T10:14:03;94743.38;;;30.99;39.23
35892;BME280;21993;42.672;23.296;2023-07-24T10:16:30;94752.69;;;31.14;39.07
35892;BME280;21993;42.672;23.296;2023-07-24T10:18:55;94744.94;;;31.32;38.83
35892;BME280;21993;42.672;23.296;2023-07-24T10:21:27;94746.59;;;31.38;38.67
35892;BME280;21993;42.672;23.296;2023-07-24T10:23:52;94728.97;;;31.41;38.56
35892;BME280;21993;42.672;23.296;2023-07-24T10:26:24;94737.16;;;31.46;38.74
35892;BME280;21993;42.672;23.296;2023-07-24T10:28:51;94732.25;;;31.48;39.08
35892;BME280;21993;42.672;23.296;2023-07-24T10:31:22;94732.53;;;31.52;39.35
35892;BME280;21993;42.672;23.296;2023-07-24T10:33:48;94726.31;;;31.56;37.96
35892;BME280;21993;42.672;23.296;2023-07-24T10:36:17;94732.88;;;31.76;37.15
35892;BME280;21993;42.672;23.296;2023-07-24T10:38:44;94728.91;;;31.88;36.51
35892;BME280;21993;42.672;23.296;2023-07-24T10:41:11;94722.91;;;31.86;36.92
35892;BME280;21993;42.672;23.296;2023-07-24T10:43:44;94723.19;;;31.90;36.61
35892;BME280;21993;42.672;23.296;2023-07-24T10:46:10;94726.47;;;32.02;36.87
35892;BME280;21993;42.672;23.296;2023-07-24T10:48:36;94721.03;;;32.07;37.10
35892;BME280;21993;42.672;23.296;2023-07-24T10:51:11;94708.53;;;32.11;37.13
35892;BME280;21993;42.672;23.296;2023-07-24T10:53:47;94703.66;;;32.08;36.45
35892;BME280;21993;42.672;23.296;2023-07-24T10:56:14;94711.53;;;32.00;36.85
35892;BME280;21993;42.672;23.296;2023-07-24T10:58:40;94704.75;;;32.07;36.80
35892;BME280;21993;42.672;23.296;2023-07-24T11:01:06;94691.44;;;32.16;36.03
35892;BME280;21993;42.672;23.296;2023-07-24T11:03:34;94696.63;;;32.22;35.67
35892;BME280;21993;42.672;23.296;2023-07-24T11:06:01;94703.41;;;32.30;35.94
35892;BME280;21993;42.672;23.296;2023-07-24T11:08:27;94701.00;;;32.39;35.46
35892;BME280;21993;42.672;23.296;2023-07-24T11:10:55;94688.47;;;32.63;34.54
35892;BME280;21993;42.672;23.296;2023-07-24T11:13:22;94691.72;;;32.60;35.67
35892;BME280;21993;42.672;23.296;2023-07-24T11:15:49;94682.72;;;32.70;34.91
35892;BME280;21993;42.672;23.296;2023-07-24T11:18:15;94684.38;;;32.76;35.40
35892;BME280;21993;42.672;23.296;2023-07-24T11:20:53;94673.72;;;33.05;34.18
35892;BME280;21993;42.672;23.296;2023-07-24T11:23:19;94673.72;;;33.05;34.28
35892;BME280;21993;42.672;23.296;2023-07-24T11:25:45;94659.31;;;33.04;33.21
35892;BME280;21993;42.672;23.296;2023-07-24T11:28:12;94664.47;;;33.01;34.18
35892;BME280;21993;42.672;23.296;2023-07-24T11:30:38;94666.91;;;33.08;33.58
35892;BME280;21993;42.672;23.296;2023-07-24T11:33:05;94662.81;;;33.15;33.93
35892;BME280;21993;42.672;23.296;2023-07-24T11:35:31;94667.44;;;33.15;33.66
35892;BME280;21993;42.672;23.296;2023-07-24T11:37:58;94659.84;;;33.01;34.76
35892;BME280;21993;42.672;23.296;2023-07-24T11:40:33;94662.03;;;33.04;35.54
35892;BME280;21993;42.672;23.296;2023-07-24T11:42:59;94655.25;;;32.97;35.73
35892;BME280;21993;42.672;23.296;2023-07-24T11:45:24;94650.63;;;32.87;36.34
35892;BME280;21993;42.672;23.296;2023-07-24T11:47:50;94651.97;;;33.05;36.32
35892;BME280;21993;42.672;23.296;2023-07-24T11:50:19;94649.72;;;33.17;36.91
35892;BME280;21993;42.672;23.296;2023-07-24T11:52:47;94645.09;;;33.23;35.97
35892;BME280;21993;42.672;23.296;2023-07-24T11:55:14;94642.66;;;33.21;35.86
35892;BME280;21993;42.672;23.296;2023-07-24T11:57:40;94638.56;;;33.19;35.87
35892;BME280;21993;42.672;23.296;2023-07-24T12:00:16;94639.13;;;33.16;36.16
35892;BME280;21993;42.672;23.296;2023-07-24T12:02:42;94640.50;;;33.08;35.69
35892;BME280;21993;42.672;23.296;2023-07-24T12:05:09;94644.28;;;33.12;36.66
35892;BME280;21993;42.672;23.296;2023-07-24T12:07:35;94647.81;;;33.18;36.43
35892;BME280;21993;42.672;23.296;2023-07-24T12:10:02;94644.81;;;33.19;35.86
35892;BME280;21993;42.672;23.296;2023-07-24T12:12:38;94634.97;;;33.28;36.34
35892;BME280;21993;42.672;23.296;2023-07-24T12:15:04;94630.91;;;33.31;34.89
35892;BME280;21993;42.672;23.296;2023-07-24T12:17:29;94638.78;;;33.27;34.80
35892;BME280;21993;42.672;23.296;2023-07-24T12:19:55;94628.97;;;33.42;33.63
35892;BME280;21993;42.672;23.296;2023-07-24T12:22:20;94634.41;;;33.37;34.33
35892;BME280;21993;42.672;23.296;2023-07-24T12:24:46;94640.91;;;33.46;34.16
35892;BME280;21993;42.672;23.296;2023-07-24T12:27:11;94643.66;;;33.36;34.84
35892;BME280;21993;42.672;23.296;2023-07-24T12:29:36;94626.47;;;33.45;34.95
35892;BME280;21993;42.672;23.296;2023-07-24T12:32:02;94623.22;;;33.43;34.89
35892;BME280;21993;42.672;23.296;2023-07-24T12:34:27;94618.06;;;33.42;35.40
35892;BME280;21993;42.672;23.296;2023-07-24T12:36:53;94611.81;;;33.41;35.43
35892;BME280;21993;42.672;23.296;2023-07-24T12:39:19;94610.41;;;33.49;35.72
35892;BME280;21993;42.672;23.296;2023-07-24T12:41:45;94613.53;;;33.71;34.06
35892;BME280;21993;42.672;23.296;2023-07-24T12:44:10;94602.97;;;33.65;33.75
35892;BME280;21993;42.672;23.296;2023-07-24T12:46:35;94611.66;;;33.67;32.96
35892;BME280;21993;42.672;23.296;2023-07-24T12:49:01;94604.06;;;33.64;33.53